Time;durP1;ratioP1;P1;durP2;ratioP2;P2;SDS_P1;SDS_P2;PMS_P1;PMS_P2;Temp;Humidity;BMP_temperature;BMP_pressure;BME280_temperature;BME280_humidity;BME280_pressure;Samples;Min_cycle;Max_cycle;Signal;HPM_P1;HPM_P2
2021/05/13 00:00:44;;;;;;;15.93;4.63;;;10.80;94.20;;;;;;5055947;28;20042;-74
2021/05/13 00:03:09;;;;;;;10.05;4.60;;;10.80;94.30;;;;;;5056431;28;20044;-74
2021/05/13 00:05:35;;;;;;;16.95;6.80;;;10.80;94.30;;;;;;5055646;28;20052;-74
2021/05/13 00:08:01;;;;;;;11.05;4.43;;;10.70;94.40;;;;;;5055868;28;20045;-74
2021/05/13 00:10:28;;;;;;;11.25;4.38;;;10.70;94.40;;;;;;5056019;28;20037;-74
2021/05/13 00:13:05;;;;;;;9.88;3.95;;;10.70;94.40;;;;;;5055637;28;20037;-74
2021/05/13 00:15:37;;;;;;;14.98;4.57;;;10.60;94.30;;;;;;5055587;28;20037;-74
2021/05/13 00:18:08;;;;;;;9.38;4.22;;;10.60;94.30;;;;;;5055613;28;20041;-74
2021/05/13 00:20:42;;;;;;;9.57;3.60;;;10.50;94.30;;;;;;5055638;28;20043;-74
2021/05/13 00:23:08;;;;;;;9.20;4.65;;;10.50;94.40;;;;;;5055688;28;20485;-74
2021/05/13 00:25:35;;;;;;;9.23;4.75;;;10.40;94.60;;;;;;5055235;28;20041;-74
2021/05/13 00:28:01;;;;;;;14.52;5.30;;;10.30;94.30;;;;;;5038156;28;20041;-74
2021/05/13 00:30:26;;;;;;;11.50;4.30;;;10.20;94.20;;;;;;5055455;28;20044;-75
2021/05/13 00:32:53;;;;;;;9.82;4.30;;;10.20;94.40;;;;;;5055353;28;20072;-74
2021/05/13 00:35:20;;;;;;;13.02;5.28;;;10.20;94.40;;;;;;5054986;28;20367;-75
2021/05/13 00:37:46;;;;;;;10.95;5.18;;;10.00;94.40;;;;;;5055500;28;20037;-74
2021/05/13 00:40:14;;;;;;;10.85;5.40;;;9.90;94.70;;;;;;5055676;28;20052;-74
2021/05/13 00:42:40;;;;;;;12.15;5.53;;;9.90;94.80;;;;;;5055682;28;20037;-74
2021/05/13 00:45:08;;;;;;;14.93;4.68;;;9.90;95.00;;;;;;5055265;28;20044;-74
2021/05/13 00:47:37;;;;;;;12.57;5.22;;;10.00;95.00;;;;;;5054980;28;20052;-74
2021/05/13 00:50:06;;;;;;;10.20;4.38;;;10.00;95.00;;;;;;5055388;28;20032;-74
2021/05/13 00:52:33;;;;;;;12.50;5.32;;;10.00;94.90;;;;;;5055346;28;20029;-74
2021/05/13 00:54:59;;;;;;;16.00;5.53;;;10.00;94.80;;;;;;5037204;28;20044;-74
2021/05/13 00:57:26;;;;;;;11.77;5.57;;;10.00;94.80;;;;;;5055346;28;20373;-74
2021/05/13 00:59:57;;;;;;;14.10;5.82;;;10.00;94.90;;;;;;5054673;28;20056;-74
2021/05/13 01:02:22;;;;;;;12.00;5.53;;;10.00;94.90;;;;;;5037547;28;20048;-74
2021/05/13 01:04:48;;;;;;;14.88;6.03;;;10.00;94.90;;;;;;5054608;28;20088;-74
2021/05/13 01:07:14;;;;;;;14.68;5.53;;;9.90;94.90;;;;;;5054800;28;20037;-74
2021/05/13 01:09:40;;;;;;;15.30;6.00;;;9.90;94.90;;;;;;5054098;28;20091;-74
2021/05/13 01:12:15;;;;;;;12.00;5.80;;;9.90;95.00;;;;;;5055158;28;20086;-74
2021/05/13 01:14:43;;;;;;;12.10;5.20;;;9.90;95.00;;;;;;5054280;28;20394;-74
2021/05/13 01:19:42;;;;;;;10.55;5.05;;;9.90;95.00;;;;;;5055055;28;20044;-74
2021/05/13 01:22:07;;;;;;;14.07;5.85;;;9.90;95.10;;;;;;5054983;28;20040;-74
2021/05/13 01:24:34;;;;;;;10.88;6.00;;;9.80;95.20;;;;;;5053906;28;20048;-74
2021/05/13 01:27:00;;;;;;;14.25;6.00;;;9.80;95.20;;;;;;5036457;28;20416;-75
2021/05/13 01:29:28;;;;;;;11.00;6.32;;;9.80;95.20;;;;;;5054810;28;20045;-74
2021/05/13 01:31:54;;;;;;;15.07;6.28;;;9.80;95.20;;;;;;5054219;28;20071;-74
2021/05/13 01:34:21;;;;;;;12.00;5.75;;;9.80;95.30;;;;;;5054082;28;20405;-74
2021/05/13 01:36:48;;;;;;;14.05;5.53;;;9.80;95.30;;;;;;5053701;28;20045;-74
2021/05/13 01:39:14;;;;;;;12.52;5.35;;;9.80;95.20;;;;;;5054644;28;20037;-74
2021/05/13 01:41:41;;;;;;;9.10;5.10;;;9.80;95.30;;;;;;5054102;28;20037;-74
2021/05/13 01:44:08;;;;;;;11.60;4.75;;;9.70;95.20;;;;;;5053790;28;20037;-74
2021/05/13 01:46:34;;;;;;;15.60;5.95;;;9.70;95.10;;;;;;5053730;28;20401;-74
2021/05/13 01:49:00;;;;;;;9.05;5.78;;;9.70;95.20;;;;;;5036455;28;20108;-74
2021/05/13 01:51:26;;;;;;;15.48;5.90;;;9.70;95.40;;;;;;5054228;28;20159;-75
2021/05/13 01:53:52;;;;;;;12.30;5.18;;;9.70;95.40;;;;;;5054374;28;20040;-74
2021/05/13 01:56:18;;;;;;;9.50;5.35;;;9.70;95.30;;;;;;5053246;28;20041;-74
2021/05/13 01:58:44;;;;;;;13.40;6.47;;;9.70;95.30;;;;;;5053784;28;20068;-74
2021/05/13 02:01:12;;;;;;;17.30;6.40;;;9.70;95.30;;;;;;5054129;28;20116;-74
2021/05/13 02:03:43;;;;;;;12.73;6.47;;;9.70;95.30;;;;;;5054013;28;20219;-74
2021/05/13 02:06:09;;;;;;;16.38;6.40;;;9.70;95.40;;;;;;5053307;28;20032;-74
2021/05/13 02:08:36;;;;;;;13.13;6.38;;;9.70;95.50;;;;;;5053585;28;20049;-74
2021/05/13 02:11:03;;;;;;;10.50;6.28;;;9.50;95.50;;;;;;5053518;28;20115;-74
2021/05/13 02:13:29;;;;;;;11.73;7.25;;;9.60;95.60;;;;;;5053386;28;20039;-74
2021/05/13 02:15:54;;;;;;;9.05;5.22;;;9.60;95.70;;;;;;5053481;28;20037;-74
2021/05/13 02:18:20;;;;;;;17.08;6.55;;;9.70;95.60;;;;;;5053789;28;20481;-74
2021/05/13 02:20:48;;;;;;;21.63;7.20;;;9.70;95.70;;;;;;5053283;28;20040;-74
2021/05/13 02:23:14;;;;;;;14.25;6.05;;;9.60;95.60;;;;;;5053279;28;20044;-74
2021/05/13 02:25:44;;;;;;;16.17;6.32;;;9.70;95.80;;;;;;5052925;28;20044;-74
2021/05/13 02:28:10;;;;;;;14.65;6.85;;;9.60;95.80;;;;;;5053569;28;20073;-74
2021/05/13 02:30:36;;;;;;;13.90;6.30;;;9.50;96.00;;;;;;5053156;28;20178;-74
2021/05/13 02:33:02;;;;;;;14.98;6.90;;;9.70;96.00;;;;;;5053861;28;20037;-74
2021/05/13 02:35:27;;;;;;;19.00;7.15;;;9.70;96.00;;;;;;5052651;28;20478;-74
2021/05/13 02:37:53;;;;;;;14.98;6.25;;;9.70;95.90;;;;;;5035350;28;20396;-74
2021/05/13 02:40:18;;;;;;;13.88;6.57;;;9.70;96.10;;;;;;5053814;28;20044;-74
2021/05/13 02:42:47;;;;;;;20.80;8.07;;;9.80;95.90;;;;;;5053237;28;20552;-74
2021/05/13 02:45:14;;;;;;;17.42;7.07;;;9.80;95.80;;;;;;5035245;28;20076;-74
2021/05/13 02:47:40;;;;;;;17.48;7.28;;;9.80;95.80;;;;;;5052880;28;20264;-74
2021/05/13 02:50:09;;;;;;;16.48;6.72;;;9.80;95.90;;;;;;5052874;28;20036;-74
2021/05/13 02:52:35;;;;;;;15.98;7.28;;;9.70;96.00;;;;;;5052886;28;20041;-74
2021/05/13 02:55:01;;;;;;;16.27;6.38;;;9.70;96.10;;;;;;5053185;28;20044;-74
2021/05/13 02:57:27;;;;;;;16.65;6.50;;;9.70;96.10;;;;;;5052831;28;20532;-74
2021/05/13 03:02:37;;;;;;;10.00;6.25;;;9.90;96.10;;;;;;5053010;28;20488;-74
2021/05/13 03:05:03;;;;;;;13.23;6.80;;;9.90;95.90;;;;;;5052657;28;20147;-74
2021/05/13 03:07:29;;;;;;;18.15;6.03;;;9.90;95.90;;;;;;5053026;28;20068;-74
2021/05/13 03:09:58;;;;;;;16.38;6.90;;;9.90;95.90;;;;;;5053234;28;20033;-74
2021/05/13 03:12:23;;;;;;;18.70;6.68;;;10.00;96.20;;;;;;5035313;28;20041;-74
2021/05/13 03:14:49;;;;;;;16.85;6.78;;;10.00;95.80;;;;;;5053023;28;20043;-74
2021/05/13 03:17:15;;;;;;;15.38;6.38;;;10.10;95.70;;;;;;5052777;28;20040;-74
2021/05/13 03:19:46;;;;;;;17.75;7.15;;;10.00;95.70;;;;;;5053282;28;20482;-74
2021/05/13 03:22:16;;;;;;;13.25;5.78;;;10.00;95.60;;;;;;5035709;28;20069;-74
2021/05/13 03:24:51;;;;;;;17.15;6.65;;;9.90;95.70;;;;;;5052620;28;20061;-74
2021/05/13 03:29:50;;;;;;;18.55;6.53;;;9.90;95.80;;;;;;5052784;28;20041;-74
2021/05/13 03:32:16;;;;;;;16.33;6.13;;;9.90;95.90;;;;;;5054822;28;20044;-74
2021/05/13 03:34:42;;;;;;;20.20;6.50;;;10.00;95.90;;;;;;5056407;28;20037;-74
2021/05/13 03:37:08;;;;;;;13.10;6.28;;;10.00;95.80;;;;;;5056193;28;20106;-74
2021/05/13 03:39:33;;;;;;;16.00;7.07;;;10.00;95.80;;;;;;5056223;28;20044;-74
2021/05/13 03:42:04;;;;;;;13.95;6.45;;;10.00;95.80;;;;;;5056476;28;20041;-74
2021/05/13 03:44:30;;;;;;;14.32;6.22;;;10.00;95.80;;;;;;5055882;28;20045;-74
2021/05/13 03:46:55;;;;;;;13.93;6.53;;;9.90;96.00;;;;;;5056119;28;20041;-74
2021/05/13 03:49:21;;;;;;;12.15;6.85;;;9.90;96.00;;;;;;5056071;28;20033;-74
2021/05/13 03:51:47;;;;;;;15.77;6.63;;;9.90;95.90;;;;;;5056533;28;20037;-74
2021/05/13 03:54:13;;;;;;;14.25;6.68;;;10.00;95.90;;;;;;5056612;28;20045;-74
2021/05/13 03:56:38;;;;;;;15.27;6.25;;;10.10;95.80;;;;;;5055440;28;20033;-74
2021/05/13 03:59:13;;;;;;;15.23;6.57;;;10.00;95.80;;;;;;5056349;28;20116;-74
2021/05/13 04:04:10;;;;;;;15.90;7.35;;;10.00;96.00;;;;;;5056254;28;20174;-74
2021/05/13 04:06:40;;;;;;;15.90;8.00;;;9.90;95.80;;;;;;5055757;28;20499;-74
2021/05/13 04:09:09;;;;;;;20.17;8.52;;;10.00;95.90;;;;;;5055740;28;20044;-74
2021/05/13 04:11:36;;;;;;;18.42;9.60;;;9.90;96.00;;;;;;5055635;28;20061;-74
2021/05/13 04:14:03;;;;;;;18.65;9.82;;;9.80;96.30;;;;;;5055626;28;20108;-74
2021/05/13 04:16:32;;;;;;;19.67;9.48;;;9.80;96.30;;;;;;5055484;28;20167;-74
2021/05/13 04:19:03;;;;;;;18.20;9.73;;;9.80;96.30;;;;;;5056191;28;20041;-74
2021/05/13 04:21:30;;;;;;;18.70;8.32;;;9.80;96.30;;;;;;5055409;28;20048;-74
2021/05/13 04:23:57;;;;;;;21.77;8.43;;;9.90;96.30;;;;;;5055392;28;20037;-74
2021/05/13 04:26:23;;;;;;;18.25;8.98;;;9.80;96.20;;;;;;5055079;28;20041;-74
2021/05/13 04:28:49;;;;;;;15.73;7.70;;;9.80;96.20;;;;;;5055900;28;20469;-74
2021/05/13 04:31:15;;;;;;;17.33;8.05;;;9.80;96.30;;;;;;5055271;28;20065;-74
2021/05/13 04:33:41;;;;;;;15.35;7.50;;;9.80;96.40;;;;;;5055990;28;20392;-74
2021/05/13 04:36:07;;;;;;;20.95;7.45;;;9.60;96.50;;;;;;5054792;28;20064;-74
2021/05/13 04:38:40;;;;;;;17.42;6.93;;;9.60;96.60;;;;;;5055309;28;20481;-74
2021/05/13 04:41:05;;;;;;;16.67;6.28;;;9.70;96.60;;;;;;5055646;28;20041;-74
2021/05/13 04:43:38;;;;;;;11.48;6.85;;;9.80;96.50;;;;;;5054731;28;20518;-74
2021/05/13 04:46:05;;;;;;;14.90;6.85;;;9.90;96.40;;;;;;5055202;28;20033;-74
2021/05/13 04:51:29;;;;;;;;;;;10.00;96.10;;;;;;5055900;28;20041;-74
2021/05/13 04:53:55;;;;;;;13.68;7.57;;;10.10;96.20;;;;;;5055349;28;19917;-74
2021/05/13 04:56:21;;;;;;;17.45;8.38;;;10.10;96.00;;;;;;5054847;28;20098;-74
2021/05/13 04:58:48;;;;;;;17.13;7.47;;;10.20;95.80;;;;;;5055415;28;20045;-74
2021/05/13 05:01:15;;;;;;;14.70;7.78;;;10.30;95.70;;;;;;5054665;28;20048;-74
2021/05/13 05:03:41;;;;;;;15.52;7.47;;;10.50;95.50;;;;;;5054746;28;20044;-74
2021/05/13 05:06:06;;;;;;;12.63;7.65;;;10.70;95.30;;;;;;5054569;28;20468;-74
2021/05/13 05:08:33;;;;;;;15.30;7.57;;;10.90;95.00;;;;;;5054869;28;20048;-74
2021/05/13 05:10:59;;;;;;;14.45;7.50;;;11.10;94.90;;;;;;5055304;28;20381;-74
2021/05/13 05:13:24;;;;;;;18.25;8.25;;;11.30;94.60;;;;;;5055129;28;20056;-74
2021/05/13 05:15:50;;;;;;;15.70;7.63;;;11.40;94.30;;;;;;5054398;28;20044;-74
2021/05/13 05:18:17;;;;;;;13.93;8.30;;;11.60;94.10;;;;;;5054435;28;20202;-74
2021/05/13 05:20:43;;;;;;;21.50;7.00;;;11.90;93.80;;;;;;5054421;28;20041;-74
2021/05/13 05:23:09;;;;;;;13.63;7.38;;;12.00;93.50;;;;;;5054487;28;20159;-74
2021/05/13 05:25:35;;;;;;;13.38;7.53;;;12.30;93.20;;;;;;5054025;28;20102;-74
2021/05/13 05:28:01;;;;;;;17.75;8.38;;;12.60;92.70;;;;;;5054245;28;20459;-74
2021/05/13 05:30:27;;;;;;;18.50;8.43;;;12.70;92.20;;;;;;5054826;28;20048;-74
2021/05/13 05:32:53;;;;;;;11.88;6.25;;;12.90;91.90;;;;;;5054132;28;20032;-74
2021/05/13 05:35:18;;;;;;;11.52;5.32;;;13.00;91.20;;;;;;5054075;28;20076;-74
2021/05/13 05:37:44;;;;;;;11.07;5.70;;;13.20;90.80;;;;;;5053903;28;20045;-74
2021/05/13 05:40:12;;;;;;;18.65;6.32;;;13.40;90.40;;;;;;5054506;28;20040;-74
2021/05/13 05:42:40;;;;;;;15.40;6.38;;;13.50;90.50;;;;;;5036675;28;20051;-74
2021/05/13 05:45:06;;;;;;;9.63;6.43;;;13.70;90.20;;;;;;5054178;28;20037;-74
2021/05/13 05:47:33;;;;;;;12.20;5.95;;;13.80;90.00;;;;;;5053880;28;20139;-75
2021/05/13 05:49:59;;;;;;;12.45;5.75;;;13.90;89.20;;;;;;5053739;28;20051;-74
2021/05/13 05:52:25;;;;;;;14.65;5.90;;;14.00;89.40;;;;;;5054079;28;20037;-74
2021/05/13 05:54:51;;;;;;;14.68;5.80;;;14.00;88.80;;;;;;5053802;28;20037;-74
2021/05/13 05:57:17;;;;;;;11.73;5.97;;;13.90;88.40;;;;;;5054174;28;20045;-74
2021/05/13 05:59:42;;;;;;;11.63;5.43;;;14.10;87.50;;;;;;5053934;28;20040;-75
2021/05/13 06:02:08;;;;;;;12.45;5.43;;;14.40;86.00;;;;;;5053552;28;20119;-74
2021/05/13 06:04:34;;;;;;;13.68;6.13;;;14.50;84.80;;;;;;5053393;28;20040;-74
2021/05/13 06:07:01;;;;;;;8.73;4.47;;;14.50;85.10;;;;;;5053539;28;20132;-74
2021/05/13 06:09:28;;;;;;;10.50;5.10;;;14.70;84.60;;;;;;5054015;28;20059;-74
2021/05/13 06:11:55;;;;;;;11.73;5.07;;;15.00;83.30;;;;;;5053313;28;20497;-74
2021/05/13 06:14:23;;;;;;;11.02;5.75;;;15.10;82.10;;;;;;5053133;28;20120;-76
2021/05/13 06:16:49;;;;;;;10.48;4.00;;;15.10;82.80;;;;;;5053220;28;20500;-74
2021/05/13 06:19:14;;;;;;;11.70;3.97;;;15.30;81.70;;;;;;5053743;28;20041;-74
2021/05/13 06:21:40;;;;;;;8.45;3.63;;;15.20;81.00;;;;;;5053992;28;20392;-74
2021/05/13 06:24:08;;;;;;;9.65;4.20;;;15.00;82.30;;;;;;5053394;28;20500;-74
2021/05/13 06:26:36;;;;;;;10.30;3.35;;;15.20;81.40;;;;;;5053155;28;20033;-74
2021/05/13 06:29:04;;;;;;;6.35;2.72;;;15.00;81.10;;;;;;5053446;28;20087;-73
2021/05/13 06:31:30;;;;;;;8.68;3.58;;;15.40;78.60;;;;;;5053435;28;20135;-74
2021/05/13 06:33:57;;;;;;;7.70;3.17;;;15.40;78.20;;;;;;5053175;28;20044;-74
2021/05/13 06:36:22;;;;;;;9.88;4.78;;;15.60;78.00;;;;;;5053166;28;20037;-74
2021/05/13 06:38:48;;;;;;;9.95;3.53;;;15.60;76.80;;;;;;5053700;28;20041;-74
2021/05/13 06:41:14;;;;;;;9.25;4.13;;;15.70;76.10;;;;;;5053693;28;20473;-74
2021/05/13 06:43:42;;;;;;;11.68;5.80;;;15.90;76.80;;;;;;5053216;28;20040;-74
2021/05/13 06:46:09;;;;;;;11.88;4.95;;;15.60;78.00;;;;;;5052655;28;20037;-74
2021/05/13 06:48:37;;;;;;;7.80;4.65;;;15.50;78.40;;;;;;5053015;28;20124;-74
2021/05/13 06:51:04;;;;;;;10.32;5.07;;;15.70;78.20;;;;;;5053065;28;20374;-74
2021/05/13 06:53:30;;;;;;;13.50;4.63;;;15.80;78.40;;;;;;5052952;28;20044;-74
2021/05/13 06:56:01;;;;;;;12.40;5.22;;;15.70;79.10;;;;;;5052697;28;20044;-74
2021/05/13 06:58:26;;;;;;;13.02;5.40;;;15.80;78.20;;;;;;5053153;28;20431;-74
2021/05/13 07:00:53;;;;;;;11.40;4.80;;;15.60;79.20;;;;;;5052793;28;20481;-74
2021/05/13 07:03:19;;;;;;;16.48;5.35;;;15.90;78.80;;;;;;5053195;28;20163;-74
2021/05/13 07:05:47;;;;;;;14.90;6.03;;;15.80;79.00;;;;;;5052595;28;20034;-74
2021/05/13 07:08:12;;;;;;;11.52;5.05;;;15.80;79.80;;;;;;5056618;28;20392;-74
2021/05/13 07:10:38;;;;;;;10.63;4.60;;;15.90;80.50;;;;;;5056812;28;20118;-74
2021/05/13 07:13:04;;;;;;;11.00;4.75;;;15.80;82.20;;;;;;5056658;28;20033;-74
2021/05/13 07:15:31;;;;;;;12.60;5.28;;;16.20;81.30;;;;;;5056352;28;20483;-74
2021/05/13 07:17:57;;;;;;;13.88;5.40;;;16.40;79.10;;;;;;5038780;28;20037;-73
2021/05/13 07:20:23;;;;;;;13.57;5.50;;;16.50;77.60;;;;;;5057223;28;20094;-73
2021/05/13 07:22:52;;;;;;;12.38;5.45;;;16.40;79.20;;;;;;5057131;28;20037;-74
2021/05/13 07:25:18;;;;;;;11.90;5.55;;;16.60;78.70;;;;;;5056234;28;20120;-74
2021/05/13 07:27:44;;;;;;;14.88;6.05;;;16.90;77.70;;;;;;5056675;28;20385;-74
2021/05/13 07:30:12;;;;;;;17.13;6.28;;;17.00;77.90;;;;;;5056813;28;20358;-74
2021/05/13 07:32:39;;;;;;;10.05;5.28;;;17.00;76.50;;;;;;5056693;28;20048;-73
2021/05/13 07:35:05;;;;;;;16.65;6.65;;;17.10;75.50;;;;;;5056522;28;20064;-73
2021/05/13 07:37:31;;;;;;;19.30;5.47;;;17.10;75.20;;;;;;5056246;28;20077;-74
2021/05/13 07:39:57;;;;;;;11.27;4.35;;;17.00;76.60;;;;;;5038440;28;20454;-74
2021/05/13 07:42:23;;;;;;;9.50;4.47;;;16.80;77.40;;;;;;5056126;28;20044;-74
2021/05/13 07:44:49;;;;;;;8.80;4.15;;;16.80;77.40;;;;;;5056148;28;20473;-74
2021/05/13 07:47:15;;;;;;;12.68;4.97;;;16.40;78.00;;;;;;5056119;28;20083;-75
2021/05/13 07:49:41;;;;;;;10.02;4.18;;;16.30;77.30;;;;;;5055337;28;20057;-72
2021/05/13 07:52:07;;;;;;;13.48;4.55;;;16.20;77.60;;;;;;5055938;28;20063;-74
2021/05/13 07:54:32;;;;;;;16.40;3.97;;;16.80;77.20;;;;;;5055298;28;20037;-74
2021/05/13 07:56:58;;;;;;;11.75;3.65;;;16.80;77.20;;;;;;5056052;28;20420;-74
2021/05/13 07:59:24;;;;;;;11.73;3.38;;;16.20;76.60;;;;;;5055453;28;20092;-73
2021/05/13 08:01:49;;;;;;;6.75;2.65;;;16.30;77.10;;;;;;5055275;28;20669;-74
2021/05/13 08:04:15;;;;;;;11.55;2.72;;;16.10;76.40;;;;;;5054690;28;20378;-73
2021/05/13 08:06:41;;;;;;;8.05;3.58;;;16.00;75.40;;;;;;5055976;28;20037;-73
2021/05/13 08:09:06;;;;;;;10.65;3.72;;;16.30;75.50;;;;;;5055542;28;20102;-74
2021/05/13 08:11:33;;;;;;;9.02;3.10;;;16.60;76.50;;;;;;5050366;28;20040;-74
2021/05/13 08:13:59;;;;;;;5.85;2.13;;;17.10;72.30;;;;;;5035586;28;20034;-74
2021/05/13 08:16:25;;;;;;;8.57;2.63;;;17.20;71.10;;;;;;5035679;28;20034;-74
2021/05/13 08:18:50;;;;;;;8.52;3.30;;;17.60;73.10;;;;;;5034721;28;20140;-74
2021/05/13 08:21:17;;;;;;;6.93;3.20;;;17.40;71.10;;;;;;5018505;28;20088;-74
2021/05/13 08:23:42;;;;;;;8.00;2.67;;;17.40;72.70;;;;;;5035444;28;20517;-74
2021/05/13 08:26:08;;;;;;;9.43;2.55;;;17.30;70.60;;;;;;5035562;28;20037;-74
2021/05/13 08:28:33;;;;;;;5.75;2.33;;;17.60;69.80;;;;;;5035517;28;20076;-74
2021/05/13 08:30:59;;;;;;;6.80;2.03;;;17.30;67.70;;;;;;5036108;28;20037;-74
2021/05/13 08:33:25;;;;;;;7.07;1.92;;;17.70;70.40;;;;;;5036092;28;20046;-74
2021/05/13 08:35:51;;;;;;;6.68;2.13;;;17.30;69.10;;;;;;5035131;28;20405;-74
2021/05/13 08:38:17;;;;;;;4.75;1.60;;;17.70;69.10;;;;;;5035457;28;20474;-74
2021/05/13 08:40:43;;;;;;;7.95;2.08;;;17.70;68.00;;;;;;5035631;28;20139;-74
2021/05/13 08:43:28;;;;;;;7.97;2.47;;;17.60;69.70;;;;;;5035308;28;20405;-73
2021/05/13 08:45:56;;;;;;;7.03;2.50;;;18.20;68.80;;;;;;5034856;28;20037;-74
2021/05/13 08:48:25;;;;;;;7.07;1.80;;;18.20;69.30;;;;;;5034901;28;20045;-75
2021/05/13 08:50:51;;;;;;;3.40;1.85;;;17.80;70.30;;;;;;5035047;28;20046;-74
2021/05/13 08:53:17;;;;;;;6.00;2.10;;;17.50;68.40;;;;;;5035322;28;20038;-74
2021/05/13 08:55:43;;;;;;;5.57;1.80;;;17.60;66.80;;;;;;5035017;28;20088;-74
2021/05/13 08:58:09;;;;;;;5.78;1.77;;;17.90;68.00;;;;;;5035306;28;20121;-74
2021/05/13 09:00:35;;;;;;;6.05;2.08;;;17.50;68.00;;;;;;5035113;28;20048;-74
2021/05/13 09:03:01;;;;;;;8.50;1.67;;;17.50;66.60;;;;;;5034658;28;20041;-74
2021/05/13 09:05:26;;;;;;;8.00;1.85;;;17.40;67.60;;;;;;5034644;28;20533;-74
2021/05/13 09:07:55;;;;;;;5.18;1.70;;;17.70;67.40;;;;;;5034840;28;20124;-74
2021/05/13 09:10:23;;;;;;;6.13;1.58;;;17.40;69.40;;;;;;5034814;28;20041;-73
2021/05/13 09:12:53;;;;;;;6.45;1.65;;;17.20;69.50;;;;;;5034709;28;20037;-73
2021/05/13 09:15:23;;;;;;;5.32;1.38;;;17.80;69.20;;;;;;5034044;28;20471;-74
2021/05/13 09:18:02;;;;;;;5.40;1.38;;;17.40;67.80;;;;;;5034621;28;20037;-74
2021/05/13 09:20:37;;;;;;;4.80;1.63;;;17.40;69.70;;;;;;5034876;28;20042;-74
2021/05/13 09:23:26;;;;;;;7.10;2.15;;;17.40;69.50;;;;;;5034436;28;20071;-74
2021/05/13 09:26:12;;;;;;;3.22;1.55;;;17.60;69.20;;;;;;5034113;28;20033;-73
2021/05/13 09:28:39;;;;;;;4.93;1.67;;;17.70;68.90;;;;;;5034656;28;20048;-73
2021/05/13 09:31:05;;;;;;;6.82;2.22;;;17.60;70.40;;;;;;5034088;28;20049;-73
2021/05/13 09:33:38;;;;;;;7.80;1.63;;;18.10;72.10;;;;;;5034553;28;20519;-73
2021/05/13 09:36:21;;;;;;;4.03;1.33;;;17.10;68.90;;;;;;5034179;28;20029;-73
2021/05/13 09:38:47;;;;;;;;;;;17.10;70.00;;;;;;5034438;28;20045;-74
2021/05/13 09:41:35;;;;;;;6.82;1.58;;;17.20;70.50;;;;;;5034308;28;19963;-74
2021/05/13 09:44:02;;;;;;;6.32;1.75;;;17.50;69.60;;;;;;5034659;28;20052;-74
2021/05/13 09:46:35;;;;;;;4.78;1.60;;;17.50;70.10;;;;;;5033672;28;20033;-74
2021/05/13 09:49:01;;;;;;;4.10;1.88;;;17.70;69.60;;;;;;5033767;28;20043;-73
2021/05/13 09:51:31;;;;;;;3.92;1.15;;;17.20;69.50;;;;;;5034115;28;20037;-74
2021/05/13 09:54:06;;;;;;;7.85;1.30;;;17.60;69.40;;;;;;5034214;28;20034;-74
2021/05/13 09:56:32;;;;;;;6.07;1.67;;;17.10;68.90;;;;;;5033807;28;20038;-74
2021/05/13 09:59:18;;;;;;;2.55;0.90;;;17.50;68.50;;;;;;5034167;28;20045;-74
2021/05/13 10:01:43;;;;;;;2.08;1.05;;;17.10;66.50;;;;;;5033777;28;20448;-74
2021/05/13 10:04:09;;;;;;;2.80;1.02;;;16.70;67.30;;;;;;5033741;28;20038;-74
2021/05/13 10:06:35;;;;;;;3.78;1.30;;;17.00;69.80;;;;;;5033693;28;20045;-74
2021/05/13 10:09:02;;;;;;;4.20;1.63;;;17.00;70.40;;;;;;5034277;28;20068;-73
2021/05/13 10:11:29;;;;;;;7.30;1.67;;;17.00;69.20;;;;;;5033485;28;20068;-74
2021/05/13 10:13:56;;;;;;;6.70;1.73;;;16.80;68.90;;;;;;5033262;28;20042;-74
2021/05/13 10:16:23;;;;;;;4.88;1.40;;;17.00;68.90;;;;;;5033319;28;20068;-74
2021/05/13 10:18:53;;;;;;;4.60;1.33;;;16.30;69.80;;;;;;5033334;28;20042;-74
2021/05/13 10:21:22;;;;;;;7.00;1.33;;;16.60;71.50;;;;;;5034175;28;20466;-74
2021/05/13 10:23:53;;;;;;;5.63;1.55;;;17.00;69.70;;;;;;5033976;28;20370;-74
2021/05/13 10:26:40;;;;;;;4.18;1.70;;;16.80;71.50;;;;;;5033088;28;20168;-74
2021/05/13 10:29:27;;;;;;;7.75;1.73;;;16.90;69.20;;;;;;5026674;28;20465;-74
2021/05/13 10:32:11;;;;;;;4.55;1.52;;;17.00;70.20;;;;;;5033384;28;20038;-74
2021/05/13 10:34:40;;;;;;;6.13;2.72;;;16.60;69.00;;;;;;5033618;28;20044;-74
2021/05/13 10:37:11;;;;;;;8.70;3.03;;;16.80;71.90;;;;;;5033215;28;20113;-74
2021/05/13 10:39:37;;;;;;;8.73;3.20;;;16.80;72.50;;;;;;5033536;28;20139;-74
2021/05/13 10:42:28;;;;;;;7.57;3.03;;;17.00;74.00;;;;;;5032947;28;20477;-74
2021/05/13 10:44:54;;;;;;;8.52;2.65;;;16.70;73.80;;;;;;5032993;28;20037;-73
2021/05/13 10:47:27;;;;;;;10.90;3.05;;;16.80;73.50;;;;;;5033077;28;20120;-74
2021/05/13 10:49:54;;;;;;;5.05;2.45;;;16.30;73.90;;;;;;5033453;28;20159;-74
2021/05/13 10:52:41;;;;;;;4.88;2.22;;;16.30;74.90;;;;;;5033045;28;20048;-74
2021/05/13 10:55:09;;;;;;;9.68;3.22;;;16.10;73.70;;;;;;5033202;28;20036;-74
2021/05/13 10:57:49;;;;;;;5.72;2.25;;;16.30;74.90;;;;;;5032847;28;20033;-74
2021/05/13 11:00:18;;;;;;;7.60;2.80;;;16.50;74.20;;;;;;5015434;28;20041;-74
2021/05/13 11:02:50;;;;;;;7.90;2.88;;;15.80;75.80;;;;;;5032928;28;20066;-73
2021/05/13 11:05:28;;;;;;;6.88;2.03;;;16.10;74.30;;;;;;5032951;28;20401;-74
2021/05/13 11:08:17;;;;;;;4.65;2.00;;;16.10;72.90;;;;;;5033188;28;20038;-73
2021/05/13 11:10:52;;;;;;;5.53;2.70;;;16.10;72.20;;;;;;5026705;28;20057;-73
2021/05/13 11:13:18;;;;;;;11.57;3.22;;;15.90;74.00;;;;;;5033266;28;20041;-73
2021/05/13 11:15:50;;;;;;;7.85;3.10;;;16.00;74.70;;;;;;5032741;28;20187;-74
2021/05/13 11:18:18;;;;;;;7.18;2.67;;;16.30;74.00;;;;;;5033306;28;20038;-74
2021/05/13 11:20:44;;;;;;;6.97;3.20;;;16.00;73.60;;;;;;5033233;28;20041;-73
2021/05/13 11:23:21;;;;;;;4.88;2.90;;;16.20;72.90;;;;;;5032787;28;20044;-74
2021/05/13 11:26:02;;;;;;;7.72;3.75;;;16.50;73.40;;;;;;5032845;28;20413;-73
2021/05/13 11:28:39;;;;;;;5.53;2.28;;;16.60;72.00;;;;;;5015703;28;20049;-73
2021/05/13 11:31:08;;;;;;;7.30;2.72;;;16.30;72.40;;;;;;5032767;28;20048;-73
2021/05/13 11:33:43;;;;;;;4.72;2.58;;;16.40;72.60;;;;;;5032666;28;20051;-73
2021/05/13 11:36:11;;;;;;;6.57;3.17;;;16.40;73.20;;;;;;5032679;28;20045;-74
2021/05/13 11:38:37;;;;;;;9.38;3.05;;;15.90;73.20;;;;;;5032620;28;20088;-74
2021/05/13 11:41:05;;;;;;;7.63;2.72;;;16.30;74.00;;;;;;5033031;28;20424;-74
2021/05/13 11:43:32;;;;;;;6.47;2.70;;;16.30;74.40;;;;;;5032750;28;20065;-73
2021/05/13 11:46:01;;;;;;;4.70;1.83;;;16.30;73.20;;;;;;5032387;28;20037;-74
2021/05/13 11:48:36;;;;;;;6.57;2.95;;;16.20;73.30;;;;;;5032537;28;20100;-72
2021/05/13 11:51:12;;;;;;;5.72;2.28;;;16.40;72.70;;;;;;5032968;28;20038;-73
2021/05/13 11:53:40;;;;;;;6.57;2.70;;;16.20;74.50;;;;;;5035805;28;20084;-74
2021/05/13 11:56:07;;;;;;;4.07;2.00;;;15.90;73.20;;;;;;5035497;28;20041;-74
2021/05/13 11:58:44;;;;;;;6.72;1.90;;;16.10;75.40;;;;;;5036000;28;20119;-74
2021/05/13 12:01:16;;;;;;;5.72;2.10;;;16.20;75.90;;;;;;5036413;28;20041;-73
2021/05/13 12:03:41;;;;;;;5.65;2.80;;;16.30;74.10;;;;;;5036260;28;20038;-73
2021/05/13 12:06:07;;;;;;;6.88;2.90;;;16.10;74.00;;;;;;5035668;28;20037;-74
2021/05/13 12:08:34;;;;;;;3.30;2.17;;;16.10;74.20;;;;;;5018684;28;20508;-74
2021/05/13 12:11:01;;;;;;;4.13;2.35;;;16.20;75.90;;;;;;5036139;28;20112;-74
2021/05/13 12:13:27;;;;;;;5.45;2.58;;;16.00;76.10;;;;;;5036190;28;20048;-73
2021/05/13 12:16:04;;;;;;;7.50;3.00;;;15.90;76.50;;;;;;5035997;28;20046;-73
2021/05/13 12:18:30;;;;;;;7.95;4.60;;;16.10;76.90;;;;;;5035961;28;20067;-73
2021/05/13 12:20:57;;;;;;;8.85;3.38;;;16.20;76.50;;;;;;5036123;28;20049;-74
2021/05/13 12:23:24;;;;;;;7.50;2.95;;;16.10;76.50;;;;;;5018755;28;20037;-74
2021/05/13 12:25:50;;;;;;;5.68;3.22;;;16.20;76.90;;;;;;5035608;28;20033;-74
2021/05/13 12:28:17;;;;;;;4.78;2.53;;;16.10;76.70;;;;;;5036413;28;20483;-74
2021/05/13 12:30:56;;;;;;;5.88;3.15;;;16.20;76.30;;;;;;5036554;28;20412;-74
2021/05/13 12:33:27;;;;;;;5.40;2.30;;;16.20;77.60;;;;;;5035490;28;20120;-74
2021/05/13 12:35:54;;;;;;;6.03;2.95;;;15.90;75.90;;;;;;5035545;28;20033;-73
2021/05/13 12:38:23;;;;;;;5.32;2.55;;;15.80;76.30;;;;;;5035377;28;20038;-73
2021/05/13 12:41:05;;;;;;;4.55;2.20;;;15.60;75.60;;;;;;5035321;28;20065;-72
2021/05/13 12:43:30;;;;;;;5.53;2.58;;;15.80;76.30;;;;;;5035427;28;20034;-72
2021/05/13 12:45:56;;;;;;;4.38;1.70;;;15.90;74.90;;;;;;5035296;28;20061;-73
2021/05/13 12:48:27;;;;;;;5.07;2.15;;;15.90;76.30;;;;;;5035355;28;20120;-73
2021/05/13 12:50:55;;;;;;;5.20;1.92;;;15.60;76.00;;;;;;5035590;28;20426;-73
2021/05/13 12:53:21;;;;;;;9.10;2.40;;;15.80;75.30;;;;;;5034996;28;20092;-72
2021/05/13 12:55:47;;;;;;;3.53;1.80;;;16.00;74.50;;;;;;5034975;28;20447;-74
2021/05/13 12:58:19;;;;;;;4.32;1.92;;;16.20;75.00;;;;;;5035152;28;20041;-74
2021/05/13 13:00:55;;;;;;;6.78;2.10;;;16.00;73.70;;;;;;5035619;28;20116;-74